createdAt,value
2023-04-29T00:02:23.381Z,12.70
2023-04-29T00:04:52.855Z,12.37
2023-04-29T00:07:22.593Z,12.07
2023-04-29T00:09:51.327Z,12.93
2023-04-29T00:12:19.775Z,12.77
2023-04-29T00:14:48.449Z,12.33
2023-04-29T00:17:17.398Z,12.17
2023-04-29T00:19:46.273Z,12.87
2023-04-29T00:22:14.476Z,12.57
2023-04-29T00:24:44.206Z,13.30
2023-04-29T00:27:12.867Z,12.77
2023-04-29T00:29:41.806Z,13.00
2023-04-29T00:32:10.301Z,12.93
2023-04-29T00:34:39.040Z,12.87
2023-04-29T00:37:07.470Z,13.57
2023-04-29T00:39:36.136Z,13.40
2023-04-29T00:42:06.735Z,14.00
2023-04-29T00:44:35.407Z,12.87
2023-04-29T00:47:04.916Z,13.47
2023-04-29T00:49:34.219Z,13.57
2023-04-29T00:52:03.054Z,13.20
2023-04-29T00:54:31.954Z,12.63
2023-04-29T00:57:02.603Z,13.40
2023-04-29T00:59:33.249Z,14.00
2023-04-29T01:02:02.910Z,12.37
2023-04-29T01:04:31.956Z,14.57
2023-04-29T01:07:08.055Z,13.60
2023-04-29T01:09:54.833Z,13.50
2023-04-29T01:12:31.099Z,14.20
2023-04-29T01:15:06.904Z,13.90
2023-04-29T01:17:42.583Z,12.00
2023-04-29T01:20:12.151Z,14.30
2023-04-29T01:22:40.359Z,13.73
2023-04-29T01:25:11.149Z,13.50
2023-04-29T01:28:08.269Z,13.30
2023-04-29T01:30:48.814Z,13.07
2023-04-29T01:33:28.713Z,13.43
2023-04-29T01:36:13.997Z,13.07
2023-04-29T01:38:48.396Z,13.43
2023-04-29T01:41:28.562Z,13.30
2023-04-29T01:44:05.604Z,14.13
2023-04-29T01:46:35.071Z,12.73
2023-04-29T01:49:03.620Z,13.07
2023-04-29T01:51:34.274Z,12.80
2023-04-29T01:54:05.150Z,12.73
2023-04-29T01:56:35.121Z,12.60
2023-04-29T01:59:13.640Z,12.93
2023-04-29T02:02:11.711Z,13.23
2023-04-29T02:04:47.829Z,12.20
2023-04-29T02:07:16.371Z,11.47
2023-04-29T02:09:46.020Z,10.37
2023-04-29T02:12:16.091Z,11.77
2023-04-29T02:14:44.554Z,12.13
2023-04-29T02:17:13.393Z,11.33
2023-04-29T02:19:43.325Z,12.13
2023-04-29T02:22:12.823Z,11.53
2023-04-29T02:24:43.066Z,12.10
2023-04-29T02:27:11.582Z,12.17
2023-04-29T02:29:41.773Z,12.23
2023-04-29T02:32:11.584Z,12.67
2023-04-29T02:34:39.963Z,12.77
2023-04-29T02:37:08.386Z,12.53
2023-04-29T02:39:36.740Z,12.10
2023-04-29T02:42:05.329Z,12.37
2023-04-29T02:44:33.584Z,12.30
2023-04-29T02:47:03.695Z,12.30
2023-04-29T02:49:32.311Z,13.10
2023-04-29T02:52:00.990Z,13.20
2023-04-29T02:54:29.290Z,12.33
2023-04-29T02:56:58.733Z,12.67
2023-04-29T02:59:27.069Z,13.20
2023-04-29T03:01:55.676Z,12.10
2023-04-29T03:04:25.590Z,12.67
2023-04-29T03:06:56.063Z,12.53
2023-04-29T03:09:24.701Z,12.03
2023-04-29T03:11:53.310Z,13.17
2023-04-29T03:14:21.590Z,13.77
2023-04-29T03:16:50.982Z,12.60
2023-04-29T03:19:19.422Z,12.17
2023-04-29T03:21:52.735Z,13.80
2023-04-29T03:24:22.519Z,13.17
2023-04-29T03:26:51.115Z,13.57
2023-04-29T03:29:21.988Z,12.60
2023-04-29T03:31:50.539Z,13.00
2023-04-29T03:34:19.202Z,12.60
2023-04-29T03:36:57.455Z,12.73
2023-04-29T03:39:25.861Z,13.37
2023-04-29T03:41:54.309Z,12.60
2023-04-29T03:44:23.968Z,12.47
2023-04-29T03:46:52.611Z,12.57
2023-04-29T03:49:23.739Z,12.27
2023-04-29T03:51:52.746Z,13.60
2023-04-29T03:54:22.608Z,12.07
2023-04-29T03:56:51.154Z,13.40
2023-04-29T03:59:19.614Z,13.03
2023-04-29T04:01:48.291Z,11.97
2023-04-29T04:04:17.546Z,13.53
2023-04-29T04:06:51.668Z,12.70
2023-04-29T04:09:23.753Z,11.00
2023-04-29T04:11:52.623Z,11.83
2023-04-29T04:14:22.105Z,11.93
2023-04-29T04:16:51.148Z,12.57
2023-04-29T04:19:19.423Z,11.67
2023-04-29T04:21:48.066Z,11.70
2023-04-29T04:24:16.342Z,10.93
2023-04-29T04:26:46.484Z,11.50
2023-04-29T04:29:25.430Z,11.57
2023-04-29T04:31:57.638Z,12.57
2023-04-29T04:34:27.368Z,12.00
2023-04-29T04:36:58.410Z,12.17
2023-04-29T04:39:26.934Z,11.80
2023-04-29T04:41:59.624Z,12.13
2023-04-29T04:44:30.337Z,11.57
2023-04-29T04:47:08.456Z,11.63
2023-04-29T04:49:59.128Z,11.33
2023-04-29T04:52:28.368Z,11.73
2023-04-29T04:55:18.498Z,11.10
2023-04-29T04:57:52.432Z,11.43
2023-04-29T05:00:20.977Z,11.77
2023-04-29T05:02:49.724Z,10.97
2023-04-29T05:05:18.454Z,11.07
2023-04-29T05:07:47.285Z,10.60
2023-04-29T05:10:16.488Z,10.70
2023-04-29T05:12:52.752Z,11.50
2023-04-29T05:15:21.710Z,11.73
2023-04-29T05:17:52.816Z,10.90
2023-04-29T05:20:21.687Z,11.97
2023-04-29T05:22:50.838Z,13.03
2023-04-29T05:25:19.129Z,10.97
2023-04-29T05:27:47.600Z,10.87
2023-04-29T05:30:20.475Z,10.97
2023-04-29T05:32:49.183Z,11.67
2023-04-29T05:35:19.565Z,11.00
2023-04-29T05:37:48.312Z,13.33
2023-04-29T05:40:36.938Z,13.80
2023-04-29T05:43:34.557Z,11.77
2023-04-29T05:46:04.159Z,12.93
2023-04-29T05:48:32.946Z,13.77
2023-04-29T05:51:01.091Z,11.70
2023-04-29T05:53:29.297Z,11.97
2023-04-29T05:55:58.440Z,11.77
2023-04-29T05:58:27.078Z,11.30
2023-04-29T06:00:56.236Z,10.77
2023-04-29T06:03:28.841Z,10.50
2023-04-29T06:06:20.548Z,11.03
2023-04-29T06:09:08.610Z,13.20
2023-04-29T06:11:44.193Z,11.07
2023-04-29T06:14:12.587Z,10.80
2023-04-29T06:16:41.500Z,11.30
2023-04-29T06:19:12.038Z,11.63
2023-04-29T06:21:40.721Z,11.73
2023-04-29T06:24:08.892Z,10.73
2023-04-29T06:26:37.805Z,10.73
2023-04-29T06:29:06.246Z,10.23
2023-04-29T06:31:34.950Z,9.20
2023-04-29T06:34:05.549Z,9.83
2023-04-29T06:36:38.263Z,9.07
2023-04-29T06:39:21.072Z,9.37
2023-04-29T06:42:09.003Z,8.83
2023-04-29T06:45:15.625Z,9.03
2023-04-29T06:47:58.564Z,8.80
2023-04-29T06:50:41.156Z,9.13
2023-04-29T06:53:11.115Z,8.73
2023-04-29T06:55:39.321Z,8.83
2023-04-29T06:58:08.031Z,9.20
2023-04-29T07:00:36.781Z,9.27
2023-04-29T07:03:05.541Z,9.33
2023-04-29T07:05:33.952Z,9.43
2023-04-29T07:08:04.060Z,8.80
2023-04-29T07:10:33.865Z,8.55
2023-04-29T07:13:02.464Z,8.38
2023-04-29T07:15:31.848Z,9.23
2023-04-29T07:18:00.619Z,8.30
2023-04-29T07:20:28.930Z,8.60
2023-04-29T07:22:57.393Z,10.60
2023-04-29T07:25:27.936Z,8.50
2023-04-29T07:27:58.932Z,9.20
2023-04-29T07:30:27.353Z,9.25
2023-04-29T07:32:56.529Z,6.97
2023-04-29T07:35:25.708Z,8.85
2023-04-29T07:37:54.372Z,9.07
2023-04-29T07:40:22.822Z,8.60
2023-04-29T07:42:51.551Z,8.68
2023-04-29T07:45:21.078Z,8.95
2023-04-29T07:47:49.709Z,9.50
2023-04-29T07:50:17.991Z,9.50
2023-04-29T07:52:46.652Z,8.55
2023-04-29T07:55:18.273Z,8.57
2023-04-29T07:57:46.944Z,9.00
2023-04-29T08:00:15.637Z,9.10
2023-04-29T08:02:46.070Z,8.40
2023-04-29T08:05:16.809Z,8.18
2023-04-29T08:07:48.764Z,9.05
2023-04-29T08:10:17.596Z,8.32
2023-04-29T08:12:47.114Z,8.95
2023-04-29T08:15:16.147Z,8.63
2023-04-29T08:17:46.179Z,8.77
2023-04-29T08:20:15.255Z,8.93
2023-04-29T08:22:44.022Z,8.60
2023-04-29T08:25:12.659Z,12.18
2023-04-29T08:27:43.532Z,8.70
2023-04-29T08:30:12.608Z,8.38
2023-04-29T08:32:41.363Z,9.23
2023-04-29T08:35:11.439Z,8.27
2023-04-29T08:37:39.945Z,8.73
2023-04-29T08:40:10.763Z,9.00
2023-04-29T08:42:39.426Z,7.85
2023-04-29T08:45:08.346Z,7.43
2023-04-29T08:47:37.985Z,8.15
2023-04-29T08:50:07.471Z,8.73
2023-04-29T08:52:37.453Z,8.02
2023-04-29T08:55:06.722Z,9.65
2023-04-29T08:57:39.817Z,8.13
2023-04-29T09:00:10.783Z,11.27
2023-04-29T09:02:46.150Z,9.98
2023-04-29T09:05:14.651Z,8.05
2023-04-29T09:07:45.708Z,7.30
2023-04-29T09:10:14.962Z,8.30
2023-04-29T09:12:43.568Z,8.23
2023-04-29T09:15:12.590Z,8.73
2023-04-29T09:17:46.134Z,8.48
2023-04-29T09:20:32.308Z,8.27
2023-04-29T09:23:04.136Z,8.30
2023-04-29T09:25:32.654Z,7.90
2023-04-29T09:28:16.206Z,7.40
2023-04-29T09:30:48.060Z,10.43
2023-04-29T09:33:17.282Z,14.02
2023-04-29T09:35:47.058Z,10.68
2023-04-29T09:38:17.687Z,8.43
2023-04-29T09:40:57.537Z,8.70
2023-04-29T09:43:27.514Z,7.75
2023-04-29T09:45:56.518Z,9.30
2023-04-29T09:48:33.764Z,8.50
2023-04-29T09:51:03.804Z,7.43
2023-04-29T09:53:37.901Z,7.97
2023-04-29T09:56:07.325Z,7.13
2023-04-29T09:58:38.112Z,7.57
2023-04-29T10:01:07.658Z,7.38
2023-04-29T10:03:38.620Z,7.40
2023-04-29T10:06:09.133Z,7.85
2023-04-29T10:08:41.461Z,7.70
2023-04-29T10:11:12.794Z,6.53
2023-04-29T10:13:44.442Z,6.60
2023-04-29T10:16:29.481Z,6.28
2023-04-29T10:19:03.656Z,6.05
2023-04-29T10:21:32.692Z,5.82
2023-04-29T10:24:04.755Z,6.07
2023-04-29T10:26:37.772Z,6.07
2023-04-29T10:29:08.575Z,6.38
2023-04-29T10:31:38.665Z,5.97
2023-04-29T10:34:07.572Z,6.30
2023-04-29T10:36:38.313Z,5.70
2023-04-29T10:39:14.106Z,6.45
2023-04-29T10:41:47.038Z,6.70
2023-04-29T10:44:15.855Z,6.82
2023-04-29T10:46:44.208Z,7.30
2023-04-29T10:49:13.008Z,6.18
2023-04-29T10:51:44.348Z,6.10
2023-04-29T10:54:16.936Z,6.00
2023-04-29T10:56:50.304Z,5.78
2023-04-29T10:59:22.944Z,5.63
2023-04-29T11:01:52.376Z,7.05
2023-04-29T11:04:23.885Z,6.72
2023-04-29T11:06:54.591Z,6.60
2023-04-29T11:09:27.496Z,6.78
2023-04-29T11:12:03.028Z,6.30
2023-04-29T11:14:33.753Z,6.40
2023-04-29T11:17:04.670Z,6.72
2023-04-29T11:19:35.062Z,6.68
2023-04-29T11:22:15.036Z,7.03
2023-04-29T11:24:53.677Z,6.22
2023-04-29T11:27:25.533Z,6.68
2023-04-29T11:29:58.611Z,8.63
2023-04-29T11:32:28.455Z,8.60
2023-04-29T11:35:08.065Z,8.18
2023-04-29T11:37:36.922Z,7.50
2023-04-29T11:40:08.772Z,8.23
2023-04-29T11:42:37.641Z,7.28
2023-04-29T11:45:07.263Z,8.15
2023-04-29T11:47:35.600Z,7.57
2023-04-29T11:50:05.838Z,7.80
2023-04-29T11:52:34.631Z,8.45
2023-04-29T11:55:03.802Z,8.05
2023-04-29T11:57:33.926Z,8.57
2023-04-29T12:00:02.864Z,8.38
2023-04-29T12:02:36.961Z,8.23
2023-04-29T12:05:08.514Z,7.85
2023-04-29T12:07:37.486Z,8.18
2023-04-29T12:10:10.400Z,8.98
2023-04-29T12:12:43.557Z,8.23
2023-04-29T12:15:12.991Z,9.00
2023-04-29T12:17:42.203Z,8.98
2023-04-29T12:20:12.745Z,9.10
2023-04-29T12:22:43.822Z,9.00
2023-04-29T12:25:12.611Z,9.20
2023-04-29T12:27:43.381Z,8.75
2023-04-29T12:30:12.802Z,9.00
2023-04-29T12:32:41.891Z,9.30
2023-04-29T12:35:17.838Z,8.90
2023-04-29T12:37:49.658Z,11.88
2023-04-29T12:40:20.230Z,8.93
2023-04-29T12:42:50.231Z,7.28
2023-04-29T12:45:29.973Z,7.53
2023-04-29T12:47:59.028Z,7.30
2023-04-29T12:50:33.271Z,7.15
2023-04-29T12:53:02.669Z,7.15
2023-04-29T12:55:32.565Z,7.50
2023-04-29T12:58:02.603Z,8.38
2023-04-29T13:00:32.246Z,7.10
2023-04-29T13:03:01.398Z,7.30
2023-04-29T13:05:30.273Z,6.47
2023-04-29T13:07:58.566Z,7.28
2023-04-29T13:10:28.351Z,6.95
2023-04-29T13:12:56.811Z,5.78
2023-04-29T13:15:27.025Z,6.40
2023-04-29T13:17:55.714Z,5.35
2023-04-29T13:20:24.352Z,5.93
2023-04-29T13:22:52.710Z,6.63
2023-04-29T13:25:21.302Z,5.63
2023-04-29T13:27:49.842Z,6.93
2023-04-29T13:30:18.514Z,5.82
2023-04-29T13:32:54.835Z,6.60
2023-04-29T13:35:25.243Z,7.07
2023-04-29T13:37:53.497Z,7.97
2023-04-29T13:40:22.275Z,7.95
2023-04-29T13:42:56.915Z,14.88
2023-04-29T13:45:38.915Z,17.13
2023-04-29T13:48:28.532Z,11.07
2023-04-29T13:51:32.832Z,14.18
2023-04-29T14:03:55.301Z,2.53
2023-04-29T14:06:24.061Z,3.08
2023-04-29T14:08:52.393Z,2.90
2023-04-29T14:11:20.905Z,2.75
2023-04-29T14:13:49.167Z,3.10
2023-04-29T14:16:18.071Z,3.38
2023-04-29T14:18:46.675Z,2.65
2023-04-29T14:21:16.865Z,3.03
2023-04-29T14:23:45.248Z,3.97
2023-04-29T14:28:45.337Z,3.22
2023-04-29T14:31:15.136Z,3.13
2023-04-29T14:33:44.542Z,3.50
2023-04-29T14:36:12.971Z,3.65
2023-04-29T14:38:42.691Z,3.45
2023-04-29T14:41:11.284Z,3.60
2023-04-29T14:43:39.834Z,3.95
2023-04-29T14:46:08.454Z,4.60
2023-04-29T14:48:36.987Z,5.10
2023-04-29T14:51:06.161Z,4.70
2023-04-29T14:53:34.752Z,4.20
2023-04-29T14:56:04.882Z,4.20
2023-04-29T14:58:33.472Z,4.97
2023-04-29T15:01:01.988Z,4.82
2023-04-29T15:03:30.534Z,5.10
2023-04-29T15:05:59.304Z,5.50
2023-04-29T15:08:27.642Z,5.93
2023-04-29T15:10:56.253Z,6.47
2023-04-29T15:13:25.956Z,6.30
2023-04-29T15:15:54.609Z,5.90
2023-04-29T15:18:23.244Z,6.43
2023-04-29T15:20:51.872Z,13.13
2023-04-29T15:23:20.216Z,14.57
2023-04-29T15:25:48.971Z,11.73
2023-04-29T15:28:17.229Z,8.23
2023-04-29T15:30:47.861Z,8.23
2023-04-29T15:33:16.291Z,7.88
2023-04-29T15:35:44.791Z,8.30
2023-04-29T15:38:13.220Z,9.35
2023-04-29T15:40:41.793Z,8.25
2023-04-29T15:43:09.949Z,7.95
2023-04-29T15:45:38.404Z,7.55
2023-04-29T15:48:08.364Z,6.18
2023-04-29T15:50:36.828Z,5.32
2023-04-29T15:53:05.138Z,5.60
2023-04-29T15:55:35.600Z,4.80
2023-04-29T15:58:03.847Z,5.68
2023-04-29T16:00:32.813Z,6.10
2023-04-29T16:03:01.195Z,5.93
2023-04-29T16:05:31.672Z,6.10
2023-04-29T16:07:59.957Z,5.30
2023-04-29T16:10:28.531Z,5.28
2023-04-29T16:12:56.775Z,4.25
2023-04-29T16:15:25.482Z,5.35
2023-04-29T16:17:54.109Z,5.30
2023-04-29T16:20:23.097Z,5.97
2023-04-29T16:22:52.780Z,6.90
2023-04-29T16:25:21.802Z,6.85
2023-04-29T16:27:50.160Z,8.07
2023-04-29T16:30:19.083Z,8.73
2023-04-29T16:32:47.976Z,9.07
2023-04-29T16:35:16.844Z,8.70
2023-04-29T16:37:45.187Z,9.32
2023-04-29T16:40:15.468Z,9.85
2023-04-29T16:42:43.851Z,10.45
2023-04-29T16:45:14.674Z,8.98
2023-04-29T16:47:43.171Z,9.77
2023-04-29T16:50:12.541Z,8.65
2023-04-29T16:52:40.698Z,8.95
2023-04-29T16:55:09.945Z,11.60
2023-04-29T16:57:39.759Z,10.30
2023-04-29T17:00:10.343Z,10.93
2023-04-29T17:02:40.243Z,10.73
2023-04-29T17:05:10.841Z,12.65
2023-04-29T17:07:39.341Z,10.80
2023-04-29T17:10:08.635Z,11.82
2023-04-29T17:12:36.899Z,12.80
2023-04-29T17:15:07.744Z,10.73
2023-04-29T17:17:36.519Z,12.20
2023-04-29T17:20:05.816Z,13.38
2023-04-29T17:22:34.420Z,14.32
2023-04-29T17:25:03.201Z,13.88
2023-04-29T17:27:31.692Z,13.77
2023-04-29T17:30:01.487Z,14.52
2023-04-29T17:32:38.647Z,15.82
2023-04-29T17:35:08.859Z,14.15
2023-04-29T17:37:37.588Z,16.13
2023-04-29T17:40:07.441Z,16.30
2023-04-29T17:42:35.829Z,14.63
2023-04-29T17:45:04.751Z,16.80
2023-04-29T17:47:35.681Z,16.57
2023-04-29T17:50:04.288Z,18.38
2023-04-29T17:52:32.443Z,17.80
2023-04-29T17:55:01.365Z,19.13
2023-04-29T17:57:29.760Z,17.60
2023-04-29T17:59:58.574Z,18.83
2023-04-29T18:02:27.514Z,18.60
2023-04-29T18:04:57.600Z,18.17
2023-04-29T18:07:26.025Z,19.53
2023-04-29T18:09:55.026Z,20.37
2023-04-29T18:12:24.140Z,20.40
2023-04-29T18:14:52.830Z,20.30
2023-04-29T18:17:21.119Z,19.80
2023-04-29T18:19:50.375Z,20.20
2023-04-29T18:22:20.018Z,20.03
2023-04-29T18:24:49.327Z,18.47
2023-04-29T18:27:17.633Z,17.00
2023-04-29T18:29:46.363Z,17.07
2023-04-29T18:32:14.570Z,19.63
2023-04-29T18:34:43.343Z,18.00
2023-04-29T18:37:11.611Z,17.80
2023-04-29T18:39:41.615Z,17.30
2023-04-29T18:42:09.906Z,16.90
2023-04-29T18:44:38.965Z,16.30
2023-04-29T18:47:07.264Z,16.93
2023-04-29T18:49:38.176Z,17.33
2023-04-29T18:52:06.675Z,16.07
2023-04-29T18:54:35.281Z,17.83
2023-04-29T18:57:05.156Z,16.93
2023-04-29T18:59:35.915Z,16.30
2023-04-29T19:02:06.122Z,15.70
2023-04-29T19:04:36.128Z,16.03
2023-04-29T19:07:06.026Z,14.33
2023-04-29T19:09:34.855Z,13.97
2023-04-29T19:12:05.227Z,15.00
2023-04-29T19:14:34.207Z,14.23
2023-04-29T19:17:02.616Z,14.37
2023-04-29T19:19:31.320Z,16.10
2023-04-29T19:21:59.836Z,15.40
2023-04-29T19:24:28.342Z,15.10
2023-04-29T19:26:56.569Z,13.73
2023-04-29T19:29:26.851Z,13.30
2023-04-29T19:31:55.457Z,12.80
2023-04-29T19:34:24.180Z,12.67
2023-04-29T19:36:52.967Z,13.30
2023-04-29T19:39:21.418Z,13.27
2023-04-29T19:41:49.808Z,11.63
2023-04-29T19:44:18.321Z,11.13
2023-04-29T19:46:51.321Z,10.87
2023-04-29T19:49:20.327Z,12.23
2023-04-29T19:51:49.027Z,10.37
2023-04-29T19:54:17.982Z,10.70
2023-04-29T19:56:46.434Z,11.97
2023-04-29T19:59:15.008Z,10.80
2023-04-29T20:01:43.472Z,11.07
2023-04-29T20:04:13.527Z,10.20
2023-04-29T20:06:42.099Z,9.93
2023-04-29T20:09:11.245Z,9.83
2023-04-29T20:11:39.661Z,9.40
2023-04-29T20:14:08.928Z,8.20
2023-04-29T20:16:37.332Z,9.47
2023-04-29T20:19:06.004Z,8.97
2023-04-29T20:21:35.757Z,8.23
2023-04-29T20:24:04.668Z,10.40
2023-04-29T20:26:33.235Z,9.37
2023-04-29T20:29:01.827Z,8.90
2023-04-29T20:31:30.080Z,9.40
2023-04-29T20:33:58.673Z,10.03
2023-04-29T20:36:28.397Z,10.67
2023-04-29T20:38:58.337Z,9.67
2023-04-29T20:41:29.056Z,9.73
2023-04-29T20:43:58.597Z,9.40
2023-04-29T20:46:29.052Z,8.23
2023-04-29T20:48:57.694Z,9.83
2023-04-29T20:51:26.757Z,7.80
2023-04-29T20:53:55.580Z,9.10
2023-04-29T20:56:26.070Z,10.10
2023-04-29T20:58:56.477Z,9.10
2023-04-29T21:01:24.687Z,8.57
2023-04-29T21:03:53.264Z,8.27
2023-04-29T21:06:21.777Z,8.90
2023-04-29T21:08:50.267Z,8.03
2023-04-29T21:11:18.585Z,8.70
2023-04-29T21:13:50.937Z,8.90
2023-04-29T21:16:20.249Z,6.90
2023-04-29T21:18:48.715Z,7.80
2023-04-29T21:21:17.080Z,6.87
2023-04-29T21:23:45.677Z,7.70
2023-04-29T21:26:15.056Z,7.60
2023-04-29T21:28:43.749Z,7.77
2023-04-29T21:31:16.241Z,7.27
2023-04-29T21:33:45.495Z,7.20
2023-04-29T21:36:14.285Z,8.17
2023-04-29T21:38:43.740Z,7.33
2023-04-29T21:41:20.901Z,7.93
2023-04-29T21:43:49.912Z,6.87
2023-04-29T21:46:20.715Z,7.30
2023-04-29T21:48:49.547Z,6.90
2023-04-29T21:51:19.022Z,7.43
2023-04-29T21:53:47.518Z,7.90
2023-04-29T21:56:16.093Z,7.13
2023-04-29T21:58:45.656Z,7.83
2023-04-29T22:01:27.462Z,7.57
2023-04-29T22:03:58.706Z,7.03
2023-04-29T22:06:27.077Z,7.50
2023-04-29T22:08:55.835Z,7.50
2023-04-29T22:11:24.765Z,7.67
2023-04-29T22:13:53.459Z,6.63
2023-04-29T22:16:23.489Z,6.27
2023-04-29T22:18:52.621Z,7.63
2023-04-29T22:21:22.265Z,6.37
2023-04-29T22:23:50.871Z,7.57
2023-04-29T22:26:19.460Z,7.50
2023-04-29T22:28:48.338Z,7.57
2023-04-29T22:31:16.768Z,8.07
2023-04-29T22:33:45.371Z,7.43
2023-04-29T22:36:13.596Z,7.37
2023-04-29T22:38:43.748Z,7.13
2023-04-29T22:41:11.963Z,7.33
2023-04-29T22:43:40.571Z,7.30
2023-04-29T22:46:08.861Z,9.27
2023-04-29T22:48:37.596Z,8.13
2023-04-29T22:51:06.305Z,8.17
2023-04-29T22:53:34.803Z,8.60
2023-04-29T22:56:04.702Z,8.90
2023-04-29T22:58:33.816Z,7.53
2023-04-29T23:01:02.270Z,9.37
2023-04-29T23:03:30.914Z,9.47
2023-04-29T23:05:59.715Z,10.13
2023-04-29T23:08:28.750Z,8.67
2023-04-29T23:10:57.159Z,9.17
2023-04-29T23:13:27.047Z,9.07
2023-04-29T23:15:57.986Z,9.10
2023-04-29T23:18:26.703Z,10.30
2023-04-29T23:20:55.343Z,10.23
2023-04-29T23:23:24.159Z,9.93
2023-04-29T23:25:52.472Z,10.60
2023-04-29T23:28:21.416Z,10.33
2023-04-29T23:33:33.598Z,10.20
2023-04-29T23:36:01.845Z,9.73
2023-04-29T23:38:30.358Z,11.30
2023-04-29T23:40:58.661Z,11.63
2023-04-29T23:43:27.279Z,11.43
2023-04-29T23:45:56.731Z,10.73
2023-04-29T23:48:25.800Z,10.17
2023-04-29T23:50:53.890Z,9.90
2023-04-29T23:53:22.436Z,10.00
2023-04-29T23:55:50.760Z,9.80
2023-04-29T23:58:19.320Z,9.47
